Weather History for Crestview, FL

Change the Weather History Date:

Sunday, September 22, 2013

  Actual Average Record
Temperature  
Mean Temperature 72 °F -  
Max Temperature 76 °F - - ()
Min Temperature 69 °F - - ()
Cooling Degree Days 7    
Growing Degree Days 22 (Base 50)    
Moisture  
Dew Point 72 °F    
Average Humidity 97    
Maximum Humidity 100    
Minimum Humidity 88    
Precipitation  
Precipitation 1.35 in - - ()
Sea Level Pressure  
Sea Level Pressure 29.78 in    
Wind  
Wind Speed 5 mph (NNE)    
Max Wind Speed 12 mph    
Max Gust Speed -    
Visibility 8 miles    
Events Rain    
T = Trace of Precipitation, MM = Missing Value Source: NWS Daily Summary

Daily Weather History Graph

Daily Weather History Graph

Search for Another Location

Airport:

Trip Planner

Search our weather history database for the weather conditions in past years. The results will help you decide how hot, cold, wet, or windy it might be!

Date:

Astronomy

Sep. 22, 2013 Rise Set
Actual Time 6:34 AM CDT 6:42 PM CDT
Civil Twilight 6:10 AM CDT 7:06 PM CDT
Nautical Twilight 5:42 AM CDT 7:34 PM CDT
Astronomical Twilight 5:14 AM CDT 8:02 PM CDT
Moon 8:49 PM CDT (9/22) 9:38 AM CDT (9/22)
Length of Visible Light 12h 55m
Length of Day
12h 07m
Waning Gibbous, 88% of the Moon is Illuminated
Sep 22
Waning Gibbous
Sep 26
Last Quarter
Oct 4
New
Oct 11
First Quarter
Oct 18
Full

Hourly Weather History & Observations

Time (CDT) Temp. Dew Point Humidity Pressure Visibility Wind Dir Wind Speed Gust Speed Precip Events Conditions
12:04 AM 73.4 °F 73.4 °F 100% 29.76 in 10.0 mi SSE 3.5 mph - N/A   Light Drizzle
12:16 AM 73.4 °F 73.4 °F 100% 29.76 in 10.0 mi South 5.8 mph - N/A   Partly Cloudy
12:43 AM 73.4 °F 73.4 °F 100% 29.76 in 10.0 mi SSE 4.6 mph - N/A   Light Drizzle
12:58 AM 73.8 °F 73.4 °F 99% 29.77 in 10.0 mi South 4.6 mph - 0.00 in Rain Light Rain
1:35 AM 73.4 °F 73.4 °F 100% 29.75 in 10.0 mi SSE 2.3 mph - N/A   Clear
1:58 AM 73.6 °F 73.2 °F 99% 29.75 in 10.0 mi SSE 2.3 mph - 0.01 in   Partly Cloudy
2:02 AM 73.4 °F 73.4 °F 100% 29.75 in 10.0 mi South 2.3 mph - N/A   Light Drizzle
2:27 AM 73.4 °F 73.4 °F 100% 29.74 in 4.0 mi SE 2.3 mph - N/A Rain Heavy Rain
2:46 AM 73.4 °F 73.4 °F 100% 29.74 in 3.0 mi Variable 2.3 mph - N/A Rain Heavy Rain
2:51 AM 73.4 °F 73.4 °F 100% 29.75 in 2.0 mi WSW 9.2 mph - N/A Rain Heavy Rain
2:56 AM 73.4 °F 73.4 °F 100% 29.75 in 1.0 mi WNW 11.5 mph - N/A Rain Heavy Rain
2:58 AM 73.6 °F 73.2 °F 99% 29.75 in 0.8 mi WNW 10.4 mph - 0.34 in Rain Heavy Rain
3:08 AM 73.4 °F 71.6 °F 94% 29.75 in 1.0 mi NW 9.2 mph - N/A Rain Heavy Rain
3:13 AM 71.6 °F 71.6 °F 100% 29.75 in 0.8 mi NW 4.6 mph - N/A Rain Heavy Rain
3:18 AM 71.6 °F 71.6 °F 100% 29.74 in 1.0 mi NW 2.3 mph - N/A Rain Heavy Rain
3:23 AM 71.6 °F 71.6 °F 100% 29.74 in 1.8 mi North 4.6 mph - N/A Rain Rain
3:28 AM 71.6 °F 71.6 °F 100% 29.75 in 2.5 mi WNW 2.3 mph - N/A Rain Heavy Rain
3:38 AM 71.6 °F 71.6 °F 100% 29.75 in 3.0 mi NW 5.8 mph - N/A Rain Rain
3:58 AM 71.8 °F 71.6 °F 99% 29.75 in 5.0 mi North 5.8 mph - 0.82 in Rain Light Rain
4:15 AM 71.6 °F 71.6 °F 100% 29.74 in 7.0 mi North 5.8 mph - N/A Rain Light Rain
4:25 AM 71.6 °F 71.6 °F 100% 29.74 in 6.0 mi North 6.9 mph - N/A Rain Light Rain
4:30 AM 71.6 °F 71.6 °F 100% 29.74 in 8.0 mi North 8.1 mph - N/A Rain Light Rain
4:58 AM 70.7 °F 70.3 °F 99% 29.75 in 10.0 mi North 5.8 mph - 0.07 in Rain Light Rain
5:08 AM 69.8 °F 69.8 °F 100% 29.75 in 10.0 mi NNE 5.8 mph - N/A   Light Drizzle
5:44 AM 69.8 °F 69.8 °F 100% 29.76 in 10.0 mi North 6.9 mph - N/A   Overcast
5:49 AM 69.8 °F 69.8 °F 100% 29.76 in 10.0 mi North 9.2 mph - N/A   Overcast
5:58 AM 69.6 °F 69.3 °F 99% 29.77 in 10.0 mi North 5.8 mph - 0.01 in   Overcast
6:18 AM 69.8 °F 69.8 °F 100% 29.75 in 10.0 mi NNE 4.6 mph - N/A   Overcast
6:38 AM 69.8 °F 69.8 °F 100% 29.76 in 10.0 mi North 6.9 mph - N/A   Overcast
6:58 AM 69.1 °F 68.7 °F 99% 29.77 in 10.0 mi NNE 4.6 mph - N/A   Overcast
7:03 AM 69.8 °F 68.0 °F 94% 29.76 in 10.0 mi NNE 3.5 mph - N/A   Overcast
7:30 AM 69.8 °F 69.8 °F 100% 29.77 in 10.0 mi NNE 6.9 mph - N/A   Overcast
7:45 AM 69.8 °F 69.8 °F 100% 29.77 in 10.0 mi NNE 4.6 mph - N/A   Overcast
7:58 AM 69.4 °F 69.1 °F 99% 29.80 in 10.0 mi North 6.9 mph - N/A   Overcast
8:11 AM 69.8 °F 69.8 °F 100% 29.79 in 10.0 mi North 8.1 mph - N/A   Overcast
8:58 AM 69.8 °F 68.7 °F 96% 29.80 in 10.0 mi NNE 5.8 mph - N/A   Overcast
9:13 AM 69.8 °F 68.0 °F 94% 29.80 in 10.0 mi NNE 6.9 mph - N/A   Overcast
9:23 AM 69.8 °F 69.8 °F 100% 29.80 in 10.0 mi NE 5.8 mph - N/A   Overcast
9:58 AM 70.3 °F 69.1 °F 96% 29.81 in 10.0 mi NNE 9.2 mph - N/A   Overcast
10:58 AM 71.4 °F 69.4 °F 93% 29.83 in 10.0 mi NNE 5.8 mph - N/A   Overcast
11:18 AM 73.4 °F 69.8 °F 88% 29.82 in 10.0 mi NNE 5.8 mph - N/A   Overcast
11:28 AM 73.4 °F 69.8 °F 88% 29.82 in 10.0 mi NNE 5.8 mph - N/A   Overcast
11:56 AM 73.4 °F 69.8 °F 88% 29.82 in 10.0 mi NE 5.8 mph - N/A   Light Drizzle
11:58 AM 73.4 °F 69.8 °F 88% 29.83 in 9.0 mi NE 5.8 mph - N/A   Light Drizzle
12:03 PM 73.4 °F 69.8 °F 88% 29.82 in 3.0 mi NNE 6.9 mph - N/A Rain Rain
12:08 PM 73.4 °F 71.6 °F 94% 29.82 in 1.8 mi NNE 5.8 mph - N/A Rain Rain
12:13 PM 73.4 °F 71.6 °F 94% 29.82 in 1.5 mi North 4.6 mph - N/A Rain Rain
12:18 PM 73.4 °F 71.6 °F 94% 29.82 in 2.5 mi NNE 4.6 mph - N/A Rain Light Rain
12:23 PM 73.4 °F 71.6 °F 94% 29.82 in 6.0 mi North 4.6 mph - N/A Rain Light Rain
12:38 PM 73.4 °F 71.6 °F 94% 29.81 in 2.0 mi NNE 4.6 mph - N/A   Light Drizzle
12:43 PM 73.4 °F 71.6 °F 94% 29.81 in 1.8 mi NNE 4.6 mph - N/A   Drizzle
12:53 PM 73.4 °F 71.6 °F 94% 29.81 in 2.0 mi NNE 3.5 mph - N/A Rain Light Rain
12:58 PM 72.9 °F 72.7 °F 99% 29.82 in 4.0 mi NNE 4.6 mph - 0.07 in   Light Drizzle
1:08 PM 73.4 °F 71.6 °F 94% 29.80 in 6.0 mi NNE 4.6 mph - N/A   Light Drizzle
1:18 PM 73.4 °F 71.6 °F 94% 29.80 in 3.0 mi NNE 2.3 mph - N/A   Drizzle
1:23 PM 73.4 °F 73.4 °F 100% 29.80 in 2.0 mi North 4.6 mph - N/A   Drizzle
1:33 PM 73.4 °F 73.4 °F 100% 29.79 in 3.0 mi NE 4.6 mph - N/A   Light Drizzle
1:43 PM 73.4 °F 73.4 °F 100% 29.79 in 10.0 mi NNE 5.8 mph - N/A   Mostly Cloudy
1:53 PM 73.4 °F 73.4 °F 100% 29.79 in 10.0 mi NE 4.6 mph - N/A   Mostly Cloudy
1:56 PM 75.2 °F 73.4 °F 94% 29.79 in 10.0 mi NE 4.6 mph - N/A   Scattered Clouds
1:58 PM 74.3 °F 72.7 °F 95% 29.80 in 10.0 mi NE 5.8 mph - 0.02 in   Scattered Clouds
2:03 PM 75.2 °F 73.4 °F 94% 29.79 in 10.0 mi NE 4.6 mph - N/A   Mostly Cloudy
2:13 PM 75.2 °F 73.4 °F 94% 29.78 in 10.0 mi NE 4.6 mph - N/A   Mostly Cloudy
2:38 PM 75.2 °F 73.4 °F 94% 29.78 in 10.0 mi ENE 2.3 mph - N/A   Mostly Cloudy
2:43 PM 75.2 °F 73.4 °F 94% 29.78 in 10.0 mi ENE 3.5 mph - N/A   Scattered Clouds
2:48 PM 75.2 °F 73.4 °F 94% 29.78 in 10.0 mi ENE 4.6 mph - N/A   Mostly Cloudy
2:53 PM 75.2 °F 73.4 °F 94% 29.77 in 10.0 mi ENE 2.3 mph - N/A   Mostly Cloudy
2:58 PM 75.7 °F 72.9 °F 91% 29.78 in 10.0 mi East 3.5 mph - N/A   Mostly Cloudy
3:35 PM 75.2 °F 73.4 °F 94% 29.77 in 8.0 mi East 2.3 mph - N/A   Light Drizzle
3:40 PM 75.2 °F 73.4 °F 94% 29.77 in 4.0 mi East 4.6 mph - N/A   Light Drizzle
3:45 PM 75.2 °F 73.4 °F 94% 29.77 in 2.5 mi East 3.5 mph - N/A   Light Drizzle
3:50 PM 75.2 °F 73.4 °F 94% 29.77 in 3.0 mi East 2.3 mph - N/A   Light Drizzle
3:55 PM 75.2 °F 73.4 °F 94% 29.77 in 3.0 mi NE 1.2 mph - N/A   Light Drizzle
3:58 PM 74.7 °F 74.3 °F 99% 29.78 in 3.0 mi Variable 2.3 mph - 0.00 in   Light Drizzle
4:09 PM 75.2 °F 75.2 °F 100% 29.76 in 8.0 mi NE 5.8 mph - N/A   Overcast
4:14 PM 75.2 °F 75.2 °F 100% 29.76 in 10.0 mi NE 5.8 mph - N/A   Overcast
4:58 PM 75.4 °F 74.3 °F 96% 29.78 in 10.0 mi ENE 5.8 mph - 0.01 in   Overcast
5:03 PM 75.2 °F 73.4 °F 94% 29.77 in 10.0 mi NE 5.8 mph - N/A   Overcast
5:18 PM 75.2 °F 73.4 °F 94% 29.77 in 10.0 mi NE 2.3 mph - N/A   Overcast
5:23 PM 75.2 °F 73.4 °F 94% 29.77 in 10.0 mi NE 4.6 mph - N/A   Overcast
5:28 PM 75.2 °F 73.4 °F 94% 29.77 in 10.0 mi NE 5.8 mph - N/A   Overcast
5:33 PM 75.2 °F 73.4 °F 94% 29.77 in 10.0 mi NNE 5.8 mph - N/A   Mostly Cloudy
5:53 PM 75.2 °F 73.4 °F 94% 29.78 in 10.0 mi NNE 4.6 mph - N/A   Mostly Cloudy
5:58 PM 74.8 °F 73.4 °F 95% 29.78 in 10.0 mi NNE 5.8 mph - N/A   Mostly Cloudy
6:03 PM 75.2 °F 73.4 °F 94% 29.78 in 10.0 mi NE 5.8 mph - N/A   Mostly Cloudy
6:23 PM 73.4 °F 73.4 °F 100% 29.79 in 10.0 mi NNE 5.8 mph - N/A   Mostly Cloudy
6:58 PM 73.6 °F 72.7 °F 97% 29.79 in 10.0 mi NE 5.8 mph - N/A   Scattered Clouds
7:58 PM 72.5 °F 71.8 °F 98% 29.80 in 10.0 mi NNE 5.8 mph - N/A   Clear
8:58 PM 72.0 °F 71.6 °F 99% 29.81 in 10.0 mi ENE 4.6 mph - N/A   Clear
9:58 PM 71.6 °F 71.2 °F 99% 29.81 in 10.0 mi NNE 3.5 mph - N/A   Clear
10:02 PM 71.6 °F 71.6 °F 100% 29.81 in 10.0 mi NNE 4.6 mph - N/A   Partly Cloudy
10:12 PM 71.6 °F 71.6 °F 100% 29.80 in 10.0 mi NNE 4.6 mph - N/A   Mostly Cloudy
10:14 PM 71.6 °F 71.6 °F 100% 29.80 in 10.0 mi NE 3.5 mph - N/A   Mostly Cloudy
10:58 PM 72.0 °F 71.6 °F 99% 29.82 in 10.0 mi ENE 4.6 mph - N/A   Overcast
11:38 PM 73.4 °F 71.6 °F 94% 29.80 in 10.0 mi Variable 5.8 mph - N/A   Overcast
11:58 PM 72.7 °F 71.8 °F 97% 29.81 in 10.0 mi NE 6.9 mph - N/A   Overcast